sensor_id;sensor_type;location;lat;lon;timestamp;pressure;altitude;pressure_sealevel;temperature;humidity
76434;BME280;65265;53.200;6.080;2023-01-08T00:04:34;100117.69;;;9.53;85.00
76434;BME280;65265;53.200;6.080;2023-01-08T00:09:25;100120.38;;;9.57;84.92
76434;BME280;65265;53.200;6.080;2023-01-08T00:14:17;100131.47;;;9.58;84.59
76434;BME280;65265;53.200;6.080;2023-01-08T00:19:09;100121.16;;;9.55;85.08
76434;BME280;65265;53.200;6.080;2023-01-08T00:24:03;100122.47;;;9.69;84.23
76434;BME280;65265;53.200;6.080;2023-01-08T00:28:54;100128.81;;;9.55;84.72
76434;BME280;65265;53.200;6.080;2023-01-08T00:33:46;100118.41;;;9.49;85.21
76434;BME280;65265;53.200;6.080;2023-01-08T00:38:37;100125.00;;;9.43;85.28
76434;BME280;65265;53.200;6.080;2023-01-08T00:43:30;100124.03;;;9.39;85.54
76434;BME280;65265;53.200;6.080;2023-01-08T00:48:22;100117.97;;;9.36;85.20
76434;BME280;65265;53.200;6.080;2023-01-08T00:53:14;100119.69;;;9.37;84.87
76434;BME280;65265;53.200;6.080;2023-01-08T00:58:05;100119.34;;;9.26;84.31
76434;BME280;65265;53.200;6.080;2023-01-08T01:02:59;100138.88;;;9.26;84.19
76434;BME280;65265;53.200;6.080;2023-01-08T01:07:50;100132.25;;;9.31;83.73
76434;BME280;65265;53.200;6.080;2023-01-08T01:12:42;100130.88;;;9.15;84.11
76434;BME280;65265;53.200;6.080;2023-01-08T01:17:34;100120.75;;;9.17;83.40
76434;BME280;65265;53.200;6.080;2023-01-08T01:22:29;100131.59;;;9.11;83.14
76434;BME280;65265;53.200;6.080;2023-01-08T01:27:21;100120.38;;;9.06;83.25
76434;BME280;65265;53.200;6.080;2023-01-08T01:32:13;100125.38;;;9.03;83.71
76434;BME280;65265;53.200;6.080;2023-01-08T01:37:05;100123.56;;;9.01;83.89
76434;BME280;65265;53.200;6.080;2023-01-08T01:41:58;100129.25;;;8.94;84.36
76434;BME280;65265;53.200;6.080;2023-01-08T01:46:49;100129.00;;;8.86;84.50
76434;BME280;65265;53.200;6.080;2023-01-08T01:51:45;100139.22;;;8.86;84.15
76434;BME280;65265;53.200;6.080;2023-01-08T01:56:38;100145.13;;;8.85;83.32
76434;BME280;65265;53.200;6.080;2023-01-08T02:01:31;100144.09;;;8.80;83.25
76434;BME280;65265;53.200;6.080;2023-01-08T02:06:33;100138.63;;;8.70;83.49
76434;BME280;65265;53.200;6.080;2023-01-08T02:11:33;100143.53;;;8.65;83.68
76434;BME280;65265;53.200;6.080;2023-01-08T02:16:35;100139.41;;;8.67;82.79
76434;BME280;65265;53.200;6.080;2023-01-08T02:21:34;100148.16;;;8.52;83.14
76434;BME280;65265;53.200;6.080;2023-01-08T02:26:30;100136.75;;;8.42;82.44
76434;BME280;65265;53.200;6.080;2023-01-08T02:31:23;100138.44;;;8.42;81.51
76434;BME280;65265;53.200;6.080;2023-01-08T02:36:30;100135.78;;;8.39;80.86
76434;BME280;65265;53.200;6.080;2023-01-08T02:41:28;100133.81;;;8.32;81.24
76434;BME280;65265;53.200;6.080;2023-01-08T02:46:26;100126.06;;;8.29;81.49
76434;BME280;65265;53.200;6.080;2023-01-08T02:51:22;100127.63;;;8.25;81.21
76434;BME280;65265;53.200;6.080;2023-01-08T02:56:18;100123.91;;;8.17;82.12
76434;BME280;65265;53.200;6.080;2023-01-08T03:01:13;100127.88;;;8.11;82.12
76434;BME280;65265;53.200;6.080;2023-01-08T03:06:09;100124.19;;;8.03;82.58
76434;BME280;65265;53.200;6.080;2023-01-08T03:11:04;100114.59;;;7.96;83.13
76434;BME280;65265;53.200;6.080;2023-01-08T03:15:58;100121.25;;;7.92;83.38
76434;BME280;65265;53.200;6.080;2023-01-08T03:20:51;100118.69;;;7.92;83.62
76434;BME280;65265;53.200;6.080;2023-01-08T03:25:45;100112.63;;;7.89;84.00
76434;BME280;65265;53.200;6.080;2023-01-08T03:30:39;100122.44;;;7.80;84.50
76434;BME280;65265;53.200;6.080;2023-01-08T03:35:32;100130.69;;;7.74;85.11
76434;BME280;65265;53.200;6.080;2023-01-08T03:40:30;100129.84;;;7.74;84.88
76434;BME280;65265;53.200;6.080;2023-01-08T03:45:26;100123.75;;;7.70;85.58
76434;BME280;65265;53.200;6.080;2023-01-08T03:50:24;100121.16;;;7.69;86.69
76434;BME280;65265;53.200;6.080;2023-01-08T03:55:17;100105.25;;;7.74;87.36
76434;BME280;65265;53.200;6.080;2023-01-08T04:00:10;100095.81;;;7.72;87.81
76434;BME280;65265;53.200;6.080;2023-01-08T04:05:03;100091.72;;;7.75;88.58
76434;BME280;65265;53.200;6.080;2023-01-08T04:09:55;100080.69;;;7.75;88.70
76434;BME280;65265;53.200;6.080;2023-01-08T04:14:46;100083.09;;;7.72;89.08
76434;BME280;65265;53.200;6.080;2023-01-08T04:19:38;100077.22;;;7.73;88.97
76434;BME280;65265;53.200;6.080;2023-01-08T04:24:31;100082.16;;;7.70;89.37
76434;BME280;65265;53.200;6.080;2023-01-08T04:29:22;100082.16;;;7.70;89.55
76434;BME280;65265;53.200;6.080;2023-01-08T04:34:13;100082.88;;;7.66;89.91
76434;BME280;65265;53.200;6.080;2023-01-08T04:39:06;100082.16;;;7.70;89.53
76434;BME280;65265;53.200;6.080;2023-01-08T04:43:59;100076.22;;;7.69;89.64
76434;BME280;65265;53.200;6.080;2023-01-08T04:48:51;100070.34;;;7.72;89.80
76434;BME280;65265;53.200;6.080;2023-01-08T04:53:42;100045.69;;;7.69;89.82
76434;BME280;65265;53.200;6.080;2023-01-08T04:58:35;100043.53;;;7.80;89.45
76434;BME280;65265;53.200;6.080;2023-01-08T05:03:28;100038.44;;;7.80;89.41
76434;BME280;65265;53.200;6.080;2023-01-08T05:08:20;100048.72;;;7.83;89.40
76434;BME280;65265;53.200;6.080;2023-01-08T05:13:11;100044.34;;;7.79;89.73
76434;BME280;65265;53.200;6.080;2023-01-08T05:18:04;100038.53;;;7.83;90.00
76434;BME280;65265;53.200;6.080;2023-01-08T05:22:57;100031.63;;;7.79;89.59
76434;BME280;65265;53.200;6.080;2023-01-08T05:27:49;100041.78;;;7.79;89.84
76434;BME280;65265;53.200;6.080;2023-01-08T05:32:41;100039.78;;;7.70;89.86
76434;BME280;65265;53.200;6.080;2023-01-08T05:37:32;100034.53;;;7.66;90.29
76434;BME280;65265;53.200;6.080;2023-01-08T05:42:26;100034.44;;;7.64;90.38
76434;BME280;65265;53.200;6.080;2023-01-08T05:47:17;100045.22;;;7.57;90.46
76434;BME280;65265;53.200;6.080;2023-01-08T05:52:09;100039.03;;;7.51;90.54
76434;BME280;65265;53.200;6.080;2023-01-08T05:57:00;100038.72;;;7.43;90.97
76434;BME280;65265;53.200;6.080;2023-01-08T06:01:53;100038.41;;;7.36;90.88
76434;BME280;65265;53.200;6.080;2023-01-08T06:06:45;100043.66;;;7.39;90.60
76434;BME280;65265;53.200;6.080;2023-01-08T06:11:36;100039.81;;;7.28;90.29
76434;BME280;65265;53.200;6.080;2023-01-08T06:16:28;100038.31;;;7.33;89.70
76434;BME280;65265;53.200;6.080;2023-01-08T06:21:21;100031.22;;;7.26;89.21
76434;BME280;65265;53.200;6.080;2023-01-08T06:26:12;100040.25;;;7.18;89.55
76434;BME280;65265;53.200;6.080;2023-01-08T06:31:04;100040.75;;;7.30;88.89
76434;BME280;65265;53.200;6.080;2023-01-08T06:35:59;100031.13;;;7.23;88.26
76434;BME280;65265;53.200;6.080;2023-01-08T06:40:52;100040.44;;;7.22;87.41
76434;BME280;65265;53.200;6.080;2023-01-08T06:45:43;100030.09;;;7.18;87.59
76434;BME280;65265;53.200;6.080;2023-01-08T06:50:34;100032.63;;;7.18;87.03
76434;BME280;65265;53.200;6.080;2023-01-08T06:55:26;100039.75;;;7.06;86.97
76434;BME280;65265;53.200;6.080;2023-01-08T07:00:19;100034.69;;;7.06;87.31
76434;BME280;65265;53.200;6.080;2023-01-08T07:05:11;100026.78;;;7.00;87.82
76434;BME280;65265;53.200;6.080;2023-01-08T07:10:03;100022.22;;;6.92;88.69
76434;BME280;65265;53.200;6.080;2023-01-08T07:14:55;100020.53;;;6.92;89.09
76434;BME280;65265;53.200;6.080;2023-01-08T07:19:47;100021.84;;;6.83;89.49
76434;BME280;65265;53.200;6.080;2023-01-08T07:24:39;100037.56;;;6.95;90.06
76434;BME280;65265;53.200;6.080;2023-01-08T07:29:31;100036.59;;;6.91;90.68
76434;BME280;65265;53.200;6.080;2023-01-08T07:34:22;100035.34;;;7.02;91.08
76434;BME280;65265;53.200;6.080;2023-01-08T07:39:16;100027.81;;;7.05;90.95
76434;BME280;65265;53.200;6.080;2023-01-08T07:44:07;100032.06;;;7.04;91.52
76434;BME280;65265;53.200;6.080;2023-01-08T07:48:59;100021.09;;;7.05;92.12
76434;BME280;65265;53.200;6.080;2023-01-08T07:53:50;100030.25;;;7.02;92.09
76434;BME280;65265;53.200;6.080;2023-01-08T07:58:43;100017.75;;;6.86;92.28
76434;BME280;65265;53.200;6.080;2023-01-08T08:03:36;100021.59;;;6.97;91.64
76434;BME280;65265;53.200;6.080;2023-01-08T08:08:28;100020.91;;;7.01;91.65
76434;BME280;65265;53.200;6.080;2023-01-08T08:13:19;100027.53;;;6.97;91.54
76434;BME280;65265;53.200;6.080;2023-01-08T08:18:12;100025.06;;;6.99;91.23
76434;BME280;65265;53.200;6.080;2023-01-08T08:23:05;100026.25;;;7.07;90.89
76434;BME280;65265;53.200;6.080;2023-01-08T08:27:57;100016.63;;;7.00;90.50
76434;BME280;65265;53.200;6.080;2023-01-08T08:32:49;100007.00;;;6.93;90.99
76434;BME280;65265;53.200;6.080;2023-01-08T08:37:42;100014.88;;;6.99;90.97
76434;BME280;65265;53.200;6.080;2023-01-08T08:42:34;100019.47;;;7.07;90.30
76434;BME280;65265;53.200;6.080;2023-01-08T08:47:25;100009.03;;;7.22;89.39
76434;BME280;65265;53.200;6.080;2023-01-08T08:52:17;100010.03;;;7.25;88.81
76434;BME280;65265;53.200;6.080;2023-01-08T08:57:10;99993.25;;;7.30;87.93
76434;BME280;65265;53.200;6.080;2023-01-08T09:02:02;99994.34;;;7.57;87.26
76434;BME280;65265;53.200;6.080;2023-01-08T09:06:54;99992.72;;;7.59;86.90
76434;BME280;65265;53.200;6.080;2023-01-08T09:11:45;99991.38;;;7.69;86.82
76434;BME280;65265;53.200;6.080;2023-01-08T09:16:38;100006.28;;;7.82;86.07
76434;BME280;65265;53.200;6.080;2023-01-08T09:21:29;100006.28;;;7.82;86.02
76434;BME280;65265;53.200;6.080;2023-01-08T09:26:21;100009.78;;;7.84;86.39
76434;BME280;65265;53.200;6.080;2023-01-08T09:31:12;100020.59;;;7.78;86.74
76434;BME280;65265;53.200;6.080;2023-01-08T09:36:08;100013.56;;;7.95;86.38
76434;BME280;65265;53.200;6.080;2023-01-08T09:41:03;100010.00;;;8.13;84.75
76434;BME280;65265;53.200;6.080;2023-01-08T09:45:58;100013.50;;;8.39;82.68
76434;BME280;65265;53.200;6.080;2023-01-08T09:50:50;100000.25;;;8.99;79.70
76434;BME280;65265;53.200;6.080;2023-01-08T09:55:55;100007.72;;;9.45;78.09
76434;BME280;65265;53.200;6.080;2023-01-08T10:00:49;100001.13;;;9.80;75.40
76434;BME280;65265;53.200;6.080;2023-01-08T10:05:40;100003.38;;;9.71;75.16
76434;BME280;65265;53.200;6.080;2023-01-08T10:10:32;99990.34;;;9.08;78.37
76434;BME280;65265;53.200;6.080;2023-01-08T10:15:26;99990.19;;;8.52;80.98
76434;BME280;65265;53.200;6.080;2023-01-08T10:20:19;99989.13;;;8.22;82.22
76434;BME280;65265;53.200;6.080;2023-01-08T10:25:13;99982.09;;;8.16;82.96
76434;BME280;65265;53.200;6.080;2023-01-08T10:30:06;99986.91;;;8.09;82.87
76434;BME280;65265;53.200;6.080;2023-01-08T10:35:02;99976.84;;;8.12;83.21
76434;BME280;65265;53.200;6.080;2023-01-08T10:40:01;99959.75;;;8.09;82.67
76434;BME280;65265;53.200;6.080;2023-01-08T10:44:59;99961.47;;;8.09;82.21
76434;BME280;65265;53.200;6.080;2023-01-08T10:49:52;99967.81;;;8.20;82.47
76434;BME280;65265;53.200;6.080;2023-01-08T10:54:45;99963.75;;;8.25;82.03
76434;BME280;65265;53.200;6.080;2023-01-08T10:59:41;99971.34;;;8.23;81.49
76434;BME280;65265;53.200;6.080;2023-01-08T11:04:34;99964.34;;;8.18;81.46
76434;BME280;65265;53.200;6.080;2023-01-08T11:09:28;99946.72;;;8.24;80.94
76434;BME280;65265;53.200;6.080;2023-01-08T11:14:25;99951.06;;;8.26;81.06
76434;BME280;65265;53.200;6.080;2023-01-08T11:19:21;99935.69;;;8.23;81.03
76434;BME280;65265;53.200;6.080;2023-01-08T11:24:17;99935.84;;;8.28;80.45
76434;BME280;65265;53.200;6.080;2023-01-08T11:29:14;99925.84;;;8.34;80.47
76434;BME280;65265;53.200;6.080;2023-01-08T11:34:14;99926.44;;;8.27;79.79
76434;BME280;65265;53.200;6.080;2023-01-08T11:39:08;99923.13;;;8.28;80.33
76434;BME280;65265;53.200;6.080;2023-01-08T11:44:11;99917.56;;;8.39;80.13
76434;BME280;65265;53.200;6.080;2023-01-08T11:49:22;99911.13;;;8.50;79.73
76434;BME280;65265;53.200;6.080;2023-01-08T11:54:29;99896.50;;;8.45;78.71
76434;BME280;65265;53.200;6.080;2023-01-08T11:59:28;99891.22;;;8.39;79.24
76434;BME280;65265;53.200;6.080;2023-01-08T12:04:35;99875.78;;;8.34;79.25
76434;BME280;65265;53.200;6.080;2023-01-08T12:09:38;99873.06;;;8.55;79.44
76434;BME280;65265;53.200;6.080;2023-01-08T12:14:39;99871.50;;;8.60;78.87
76434;BME280;65265;53.200;6.080;2023-01-08T12:19:47;99865.72;;;8.64;79.23
76434;BME280;65265;53.200;6.080;2023-01-08T12:24:56;99855.97;;;8.79;77.55
76434;BME280;65265;53.200;6.080;2023-01-08T12:30:02;99844.44;;;8.90;76.97
76434;BME280;65265;53.200;6.080;2023-01-08T12:35:07;99840.88;;;8.85;77.71
76434;BME280;65265;53.200;6.080;2023-01-08T12:40:05;99833.88;;;8.78;77.68
76434;BME280;65265;53.200;6.080;2023-01-08T12:45:06;99836.03;;;8.66;78.20
76434;BME280;65265;53.200;6.080;2023-01-08T12:50:26;99825.72;;;8.89;77.38
76434;BME280;65265;53.200;6.080;2023-01-08T12:55:25;99818.94;;;8.90;77.12
76434;BME280;65265;53.200;6.080;2023-01-08T13:00:25;99820.84;;;8.69;78.04
76434;BME280;65265;53.200;6.080;2023-01-08T13:05:31;99798.66;;;8.94;78.10
76434;BME280;65265;53.200;6.080;2023-01-08T13:10:31;99806.88;;;9.14;76.78
76434;BME280;65265;53.200;6.080;2023-01-08T13:15:26;99806.19;;;9.18;76.81
76434;BME280;65265;53.200;6.080;2023-01-08T13:20:20;99803.22;;;9.04;77.25
76434;BME280;65265;53.200;6.080;2023-01-08T13:25:30;99800.34;;;8.94;77.81
76434;BME280;65265;53.200;6.080;2023-01-08T13:30:33;99800.03;;;8.83;78.01
76434;BME280;65265;53.200;6.080;2023-01-08T13:35:28;99787.25;;;8.82;78.50
76434;BME280;65265;53.200;6.080;2023-01-08T13:40:37;99780.69;;;8.90;78.00
76434;BME280;65265;53.200;6.080;2023-01-08T13:45:29;99768.53;;;8.81;77.85
76434;BME280;65265;53.200;6.080;2023-01-08T13:50:23;99764.13;;;8.76;78.46
76434;BME280;65265;53.200;6.080;2023-01-08T13:55:19;99771.88;;;8.79;78.47
76434;BME280;65265;53.200;6.080;2023-01-08T14:00:21;99752.34;;;8.79;79.49
76434;BME280;65265;53.200;6.080;2023-01-08T14:05:21;99760.00;;;8.79;79.32
76434;BME280;65265;53.200;6.080;2023-01-08T14:10:13;99758.22;;;8.77;79.05
76434;BME280;65265;53.200;6.080;2023-01-08T14:15:07;99752.78;;;8.66;79.19
76434;BME280;65265;53.200;6.080;2023-01-08T14:20:08;99746.09;;;8.70;78.61
76434;BME280;65265;53.200;6.080;2023-01-08T14:25:03;99752.09;;;8.72;78.18
76434;BME280;65265;53.200;6.080;2023-01-08T14:29:57;99733.13;;;8.62;78.47
76434;BME280;65265;53.200;6.080;2023-01-08T14:34:51;99740.63;;;8.56;79.30
76434;BME280;65265;53.200;6.080;2023-01-08T14:39:45;99741.25;;;8.49;79.65
76434;BME280;65265;53.200;6.080;2023-01-08T14:44:40;99738.84;;;8.54;79.46
76434;BME280;65265;53.200;6.080;2023-01-08T14:49:35;99736.09;;;8.48;79.83
76434;BME280;65265;53.200;6.080;2023-01-08T14:54:33;99734.22;;;8.42;79.64
76434;BME280;65265;53.200;6.080;2023-01-08T14:59:31;99738.13;;;8.31;79.99
76434;BME280;65265;53.200;6.080;2023-01-08T15:04:23;99742.03;;;8.20;80.44
76434;BME280;65265;53.200;6.080;2023-01-08T15:09:20;99736.94;;;8.20;80.44
76434;BME280;65265;53.200;6.080;2023-01-08T15:14:13;99724.84;;;8.15;80.88
76434;BME280;65265;53.200;6.080;2023-01-08T15:19:11;99728.72;;;8.04;81.09
76434;BME280;65265;53.200;6.080;2023-01-08T15:24:05;99720.03;;;7.97;81.25
76434;BME280;65265;53.200;6.080;2023-01-08T15:28:58;99712.97;;;7.89;80.52
76434;BME280;65265;53.200;6.080;2023-01-08T15:33:51;99714.09;;;7.97;81.19
76434;BME280;65265;53.200;6.080;2023-01-08T15:38:45;99709.53;;;7.87;81.56
76434;BME280;65265;53.200;6.080;2023-01-08T15:43:36;99713.72;;;7.85;81.74
76434;BME280;65265;53.200;6.080;2023-01-08T15:48:29;99699.03;;;7.78;82.35
76434;BME280;65265;53.200;6.080;2023-01-08T15:53:20;99686.16;;;7.73;82.23
76434;BME280;65265;53.200;6.080;2023-01-08T15:58:14;99681.00;;;7.70;82.03
76434;BME280;65265;53.200;6.080;2023-01-08T16:03:06;99688.47;;;7.66;82.03
76434;BME280;65265;53.200;6.080;2023-01-08T16:07:58;99676.34;;;7.59;82.04
76434;BME280;65265;53.200;6.080;2023-01-08T16:12:50;99680.34;;;7.51;82.02
76434;BME280;65265;53.200;6.080;2023-01-08T16:17:43;99681.84;;;7.46;82.31
76434;BME280;65265;53.200;6.080;2023-01-08T16:22:35;99674.31;;;7.49;82.23
76434;BME280;65265;53.200;6.080;2023-01-08T16:27:26;99658.47;;;7.56;82.05
76434;BME280;65265;53.200;6.080;2023-01-08T16:32:18;99665.63;;;7.67;81.86
76434;BME280;65265;53.200;6.080;2023-01-08T16:37:11;99658.25;;;7.75;81.40
76434;BME280;65265;53.200;6.080;2023-01-08T16:42:02;99654.66;;;7.70;81.22
76434;BME280;65265;53.200;6.080;2023-01-08T16:46:55;99665.72;;;7.70;80.97
76434;BME280;65265;53.200;6.080;2023-01-08T16:51:46;99667.63;;;7.77;80.28
76434;BME280;65265;53.200;6.080;2023-01-08T16:56:41;99655.56;;;7.72;80.26
76434;BME280;65265;53.200;6.080;2023-01-08T17:01:33;99653.75;;;7.68;80.45
76434;BME280;65265;53.200;6.080;2023-01-08T17:06:24;99648.34;;;7.57;80.40
76434;BME280;65265;53.200;6.080;2023-01-08T17:11:17;99647.22;;;7.49;80.63
76434;BME280;65265;53.200;6.080;2023-01-08T17:16:12;99651.19;;;7.41;80.97
76434;BME280;65265;53.200;6.080;2023-01-08T17:21:04;99650.44;;;7.44;80.99
76434;BME280;65265;53.200;6.080;2023-01-08T17:25:57;99643.72;;;7.46;80.73
76434;BME280;65265;53.200;6.080;2023-01-08T17:30:49;99644.47;;;7.43;81.13
76434;BME280;65265;53.200;6.080;2023-01-08T17:35:42;99642.88;;;7.47;80.74
76434;BME280;65265;53.200;6.080;2023-01-08T17:40:35;99635.22;;;7.45;80.62
76434;BME280;65265;53.200;6.080;2023-01-08T17:45:27;99634.84;;;7.33;80.87
76434;BME280;65265;53.200;6.080;2023-01-08T17:50:18;99633.03;;;7.31;80.74
76434;BME280;65265;53.200;6.080;2023-01-08T17:55:11;99627.66;;;7.22;80.52
76434;BME280;65265;53.200;6.080;2023-01-08T18:00:03;99623.56;;;7.02;80.97
76434;BME280;65265;53.200;6.080;2023-01-08T18:04:55;99619.47;;;6.82;81.87
76434;BME280;65265;53.200;6.080;2023-01-08T18:09:47;99605.44;;;6.68;82.00
76434;BME280;65265;53.200;6.080;2023-01-08T18:14:43;99601.63;;;6.56;82.43
76434;BME280;65265;53.200;6.080;2023-01-08T18:19:34;99588.03;;;6.55;82.57
76434;BME280;65265;53.200;6.080;2023-01-08T18:24:26;99593.78;;;6.50;82.95
76434;BME280;65265;53.200;6.080;2023-01-08T18:29:17;99579.50;;;6.53;83.23
76434;BME280;65265;53.200;6.080;2023-01-08T18:34:13;99568.72;;;6.59;83.17
76434;BME280;65265;53.200;6.080;2023-01-08T18:39:05;99559.53;;;6.62;82.65
76434;BME280;65265;53.200;6.080;2023-01-08T18:43:56;99551.41;;;6.72;81.80
76434;BME280;65265;53.200;6.080;2023-01-08T18:48:50;99542.81;;;6.69;81.92
76434;BME280;65265;53.200;6.080;2023-01-08T18:53:46;99539.31;;;6.65;81.79
76434;BME280;65265;53.200;6.080;2023-01-08T18:58:38;99521.25;;;6.58;81.61
76434;BME280;65265;53.200;6.080;2023-01-08T19:03:29;99531.94;;;6.49;82.15
76434;BME280;65265;53.200;6.080;2023-01-08T19:08:23;99519.78;;;6.39;82.39
76434;BME280;65265;53.200;6.080;2023-01-08T19:13:19;99504.16;;;6.29;82.60
76434;BME280;65265;53.200;6.080;2023-01-08T19:18:11;99505.03;;;6.29;82.90
76434;BME280;65265;53.200;6.080;2023-01-08T19:23:05;99486.31;;;6.27;83.03
76434;BME280;65265;53.200;6.080;2023-01-08T19:27:57;99476.13;;;6.26;83.23
76434;BME280;65265;53.200;6.080;2023-01-08T19:32:50;99475.16;;;6.22;83.08
76434;BME280;65265;53.200;6.080;2023-01-08T19:37:42;99465.44;;;6.11;83.92
76434;BME280;65265;53.200;6.080;2023-01-08T19:42:33;99460.50;;;6.15;83.46
76434;BME280;65265;53.200;6.080;2023-01-08T19:47:42;99455.94;;;6.05;84.13
76434;BME280;65265;53.200;6.080;2023-01-08T19:52:35;99444.06;;;6.04;83.94
76434;BME280;65265;53.200;6.080;2023-01-08T19:57:27;99433.06;;;6.04;84.17
76434;BME280;65265;53.200;6.080;2023-01-08T20:02:18;99430.56;;;6.05;83.94
76434;BME280;65265;53.200;6.080;2023-01-08T20:07:10;99428.56;;;5.97;84.34
76434;BME280;65265;53.200;6.080;2023-01-08T20:12:04;99418.47;;;5.98;84.44
76434;BME280;65265;53.200;6.080;2023-01-08T20:16:55;99417.44;;;5.93;84.18
76434;BME280;65265;53.200;6.080;2023-01-08T20:21:47;99409.84;;;5.93;84.76
76434;BME280;65265;53.200;6.080;2023-01-08T20:26:40;99415.19;;;6.01;84.62
76434;BME280;65265;53.200;6.080;2023-01-08T20:31:33;99403.44;;;6.04;84.35
76434;BME280;65265;53.200;6.080;2023-01-08T20:36:38;99399.34;;;6.08;84.42
76434;BME280;65265;53.200;6.080;2023-01-08T20:41:30;99389.44;;;6.15;84.44
76434;BME280;65265;53.200;6.080;2023-01-08T20:46:22;99386.81;;;6.12;84.36
76434;BME280;65265;53.200;6.080;2023-01-08T20:51:20;99387.31;;;6.02;84.52
76434;BME280;65265;53.200;6.080;2023-01-08T20:56:12;99377.97;;;6.01;84.48
76434;BME280;65265;53.200;6.080;2023-01-08T21:01:05;99364.94;;;5.91;85.27
76434;BME280;65265;53.200;6.080;2023-01-08T21:05:57;99361.63;;;5.93;85.23
76434;BME280;65265;53.200;6.080;2023-01-08T21:10:56;99354.25;;;5.99;85.25
76434;BME280;65265;53.200;6.080;2023-01-08T21:15:48;99355.97;;;6.00;84.98
76434;BME280;65265;53.200;6.080;2023-01-08T21:20:39;99349.75;;;5.92;85.36
76434;BME280;65265;53.200;6.080;2023-01-08T21:25:31;99344.84;;;5.97;85.29
76434;BME280;65265;53.200;6.080;2023-01-08T21:30:25;99344.28;;;6.05;84.72
76434;BME280;65265;53.200;6.080;2023-01-08T21:35:16;99340.81;;;6.02;84.73
76434;BME280;65265;53.200;6.080;2023-01-08T21:40:09;99330.50;;;5.97;84.68
76434;BME280;65265;53.200;6.080;2023-01-08T21:45:01;99319.47;;;5.97;85.05
76434;BME280;65265;53.200;6.080;2023-01-08T21:50:12;99304.06;;;5.91;85.61
76434;BME280;65265;53.200;6.080;2023-01-08T21:55:04;99290.50;;;5.90;85.47
76434;BME280;65265;53.200;6.080;2023-01-08T21:59:56;99287.16;;;5.91;85.44
76434;BME280;65265;53.200;6.080;2023-01-08T22:04:47;99285.41;;;5.89;85.75
76434;BME280;65265;53.200;6.080;2023-01-08T22:09:41;99276.81;;;5.85;85.80
76434;BME280;65265;53.200;6.080;2023-01-08T22:14:32;99272.91;;;5.95;85.81
76434;BME280;65265;53.200;6.080;2023-01-08T22:19:23;99272.75;;;5.90;85.74
76434;BME280;65265;53.200;6.080;2023-01-08T22:24:15;99265.88;;;5.88;85.88
76434;BME280;65265;53.200;6.080;2023-01-08T22:29:08;99269.38;;;5.91;85.89
76434;BME280;65265;53.200;6.080;2023-01-08T22:34:00;99269.31;;;5.88;86.31
76434;BME280;65265;53.200;6.080;2023-01-08T22:38:51;99251.63;;;5.91;86.29
76434;BME280;65265;53.200;6.080;2023-01-08T22:43:43;99252.69;;;5.98;85.94
76434;BME280;65265;53.200;6.080;2023-01-08T22:48:36;99244.41;;;6.03;86.01
76434;BME280;65265;53.200;6.080;2023-01-08T22:53:27;99244.63;;;6.09;85.88
76434;BME280;65265;53.200;6.080;2023-01-08T22:58:18;99239.84;;;6.18;85.68
76434;BME280;65265;53.200;6.080;2023-01-08T23:03:10;99230.88;;;6.29;86.02
76434;BME280;65265;53.200;6.080;2023-01-08T23:08:03;99223.72;;;6.44;85.51
76434;BME280;65265;53.200;6.080;2023-01-08T23:12:55;99224.84;;;6.54;85.61
76434;BME280;65265;53.200;6.080;2023-01-08T23:17:46;99222.22;;;6.79;84.42
76434;BME280;65265;53.200;6.080;2023-01-08T23:22:38;99223.47;;;6.94;84.13
76434;BME280;65265;53.200;6.080;2023-01-08T23:27:32;99226.41;;;7.07;83.30
76434;BME280;65265;53.200;6.080;2023-01-08T23:32:25;99223.97;;;7.12;83.30
76434;BME280;65265;53.200;6.080;2023-01-08T23:37:17;99227.56;;;7.18;83.21
76434;BME280;65265;53.200;6.080;2023-01-08T23:42:08;99243.81;;;7.25;84.23
76434;BME280;65265;53.200;6.080;2023-01-08T23:47:02;99242.69;;;7.14;87.35
76434;BME280;65265;53.200;6.080;2023-01-08T23:51:53;99239.94;;;7.06;88.98
76434;BME280;65265;53.200;6.080;2023-01-08T23:56:45;99236.41;;;7.02;89.76
